Time,TemperatureF,DewpointF,PressureIn,WindDirection,WindDirectionDegrees,WindSpeedMPH,WindSpeedGustMPH,Humidity,HourlyPrecipIn,Conditions,Clouds,dailyrainin,SolarRadiationWatts/m^2,SoftwareType,DateUTC
2013-03-22 00:00:00,25.0,14.9,29.73,NW,304,1.0,1.0,65,0.00,,,0.00,0,Wunderground v.1.15,2013-03-22 04:00:00,
2013-03-22 00:10:00,24.4,14.7,29.73,NW,317,0.0,0.0,66,0.00,,,0.00,0,Wunderground v.1.15,2013-03-22 04:10:00,
2013-03-22 00:20:00,23.9,14.9,29.73,NW,319,1.0,1.0,68,0.00,,,0.00,0,Wunderground v.1.15,2013-03-22 04:20:00,
2013-03-22 00:30:00,23.7,14.7,29.74,NW,319,1.0,1.0,68,0.00,,,0.00,0,Wunderground v.1.15,2013-03-22 04:30:00,
2013-03-22 00:40:00,23.5,14.8,29.73,NW,319,0.0,0.0,69,0.00,,,0.00,0,Wunderground v.1.15,2013-03-22 04:40:00,
2013-03-22 00:50:00,22.9,14.2,29.74,NW,318,0.0,0.0,69,0.00,,,0.00,0,Wunderground v.1.15,2013-03-22 04:50:00,
2013-03-22 01:00:00,22.1,13.8,29.74,NW,319,0.0,0.0,70,0.00,,,0.00,0,Wunderground v.1.15,2013-03-22 05:00:00,
2013-03-22 01:10:00,21.4,14.1,29.73,NW,319,0.0,0.0,73,0.00,,,0.00,0,Wunderground v.1.15,2013-03-22 05:10:00,
2013-03-22 01:20:00,20.7,13.7,29.74,NW,319,0.0,0.0,74,0.00,,,0.00,0,Wunderground v.1.15,2013-03-22 05:20:00,
2013-03-22 01:30:00,20.3,13.9,29.74,NW,319,0.0,0.0,76,0.00,,,0.00,0,Wunderground v.1.15,2013-03-22 05:30:00,
2013-03-22 01:40:00,19.8,13.8,29.74,NW,319,0.0,0.0,77,0.00,,,0.00,0,Wunderground v.1.15,2013-03-22 05:40:00,
2013-03-22 01:50:00,19.4,13.9,29.74,NW,319,0.0,0.0,79,0.00,,,0.00,0,Wunderground v.1.15,2013-03-22 05:50:00,
2013-03-22 02:00:00,19.2,14.0,29.74,North,355,0.0,1.0,80,0.00,,,0.00,0,Wunderground v.1.15,2013-03-22 06:00:00,
2013-03-22 02:10:00,19.3,14.1,29.73,North,355,0.0,0.0,80,0.00,,,0.00,0,Wunderground v.1.15,2013-03-22 06:10:00,
2013-03-22 02:20:00,19.7,14.5,29.73,North,355,0.0,0.0,80,0.00,,,0.00,0,Wunderground v.1.15,2013-03-22 06:20:00,
2013-03-22 02:30:00,20.2,14.4,29.73,North,355,0.0,0.0,78,0.00,,,0.00,0,Wunderground v.1.15,2013-03-22 06:30:00,
2013-03-22 02:40:00,20.2,14.7,29.73,North,355,0.0,0.0,79,0.00,,,0.00,0,Wunderground v.1.15,2013-03-22 06:40:00,
2013-03-22 02:50:00,20.3,14.8,29.73,North,355,0.0,0.0,79,0.00,,,0.00,0,Wunderground v.1.15,2013-03-22 06:50:00,
2013-03-22 03:00:00,20.4,14.9,29.73,North,355,0.0,0.0,79,0.00,,,0.00,0,Wunderground v.1.15,2013-03-22 07:00:00,
2013-03-22 03:10:00,20.2,15.0,29.73,North,355,0.0,0.0,80,0.00,,,0.00,0,Wunderground v.1.15,2013-03-22 07:10:00,
2013-03-22 03:20:00,20.0,15.1,29.73,North,355,0.0,0.0,81,0.00,,,0.00,0,Wunderground v.1.15,2013-03-22 07:20:00,
2013-03-22 03:30:00,19.9,14.7,29.73,North,355,0.0,0.0,80,0.00,,,0.00,0,Wunderground v.1.15,2013-03-22 07:30:00,
2013-03-22 03:40:00,19.6,14.7,29.72,North,355,0.0,0.0,81,0.00,,,0.00,0,Wunderground v.1.15,2013-03-22 07:40:00,
2013-03-22 03:50:00,19.3,14.4,29.72,North,355,0.0,0.0,81,0.00,,,0.00,0,Wunderground v.1.15,2013-03-22 07:50:00,
2013-03-22 04:00:00,19.1,14.5,29.72,North,355,0.0,0.0,82,0.00,,,0.00,0,Wunderground v.1.15,2013-03-22 08:00:00,
2013-03-22 04:10:00,19.1,14.5,29.72,North,355,0.0,0.0,82,0.00,,,0.00,0,Wunderground v.1.15,2013-03-22 08:10:00,
2013-03-22 04:20:00,19.0,15.0,29.72,North,355,0.0,0.0,84,0.00,,,0.00,0,Wunderground v.1.15,2013-03-22 08:20:00,
2013-03-22 04:30:00,19.2,15.4,29.72,North,355,0.0,0.0,85,0.00,,,0.00,0,Wunderground v.1.15,2013-03-22 08:30:00,
2013-03-22 04:40:00,19.5,15.5,29.72,North,355,0.0,0.0,84,0.00,,,0.00,0,Wunderground v.1.15,2013-03-22 08:40:00,
2013-03-22 04:50:00,19.9,15.8,29.72,North,355,0.0,0.0,84,0.00,,,0.00,0,Wunderground v.1.15,2013-03-22 08:50:00,
2013-03-22 05:00:00,20.2,16.4,29.72,North,355,0.0,0.0,85,0.00,,,0.00,0,Wunderground v.1.15,2013-03-22 09:00:00,
2013-03-22 05:10:00,20.4,16.3,29.72,North,355,0.0,0.0,84,0.00,,,0.00,0,Wunderground v.1.15,2013-03-22 09:10:00,
2013-03-22 05:20:00,21.0,16.6,29.72,North,355,0.0,0.0,83,0.00,,,0.00,0,Wunderground v.1.15,2013-03-22 09:20:00,
2013-03-22 05:30:00,21.6,17.0,29.72,North,355,0.0,0.0,82,0.00,,,0.00,0,Wunderground v.1.15,2013-03-22 09:30:00,
2013-03-22 05:40:00,22.0,17.3,29.72,North,355,0.0,0.0,82,0.00,,,0.00,0,Wunderground v.1.15,2013-03-22 09:40:00,
2013-03-22 05:50:00,22.4,17.7,29.73,North,355,0.0,0.0,82,0.00,,,0.00,0,Wunderground v.1.15,2013-03-22 09:50:00,
2013-03-22 06:00:00,22.6,17.9,29.72,West,260,0.0,0.0,82,0.00,,,0.00,0,Wunderground v.1.15,2013-03-22 10:00:00,
2013-03-22 06:10:00,22.7,17.7,29.73,West,259,0.0,0.0,81,0.00,,,0.00,0,Wunderground v.1.15,2013-03-22 10:10:00,
2013-03-22 06:20:00,22.9,17.9,29.73,West,259,0.0,0.0,81,0.00,,,0.00,0,Wunderground v.1.15,2013-03-22 10:20:00,
2013-03-22 06:30:00,23.1,18.1,29.73,West,259,0.0,0.0,81,0.00,,,0.00,0,Wunderground v.1.15,2013-03-22 10:30:00,
2013-03-22 06:40:00,23.3,18.3,29.73,West,259,0.0,0.0,81,0.00,,,0.00,0,Wunderground v.1.15,2013-03-22 10:40:00,
2013-03-22 06:50:00,23.4,18.1,29.73,West,259,0.0,0.0,80,0.00,,,0.00,0,Wunderground v.1.15,2013-03-22 10:50:00,
2013-03-22 07:00:00,23.6,18.6,29.73,WSW,258,0.0,0.0,81,0.00,,,0.00,0,Wunderground v.1.15,2013-03-22 11:00:00,
2013-03-22 07:10:00,23.8,18.8,29.74,West,259,0.0,0.0,81,0.00,,,0.00,0,Wunderground v.1.15,2013-03-22 11:10:00,
2013-03-22 07:20:00,24.0,19.3,29.74,West,259,0.0,0.0,82,0.00,,,0.00,9,Wunderground v.1.15,2013-03-22 11:20:00,
2013-03-22 07:30:00,24.2,19.5,29.74,WSW,258,0.0,0.0,82,0.00,,,0.00,12,Wunderground v.1.15,2013-03-22 11:30:00,
2013-03-22 07:40:00,24.5,20.4,29.75,SE,138,0.0,0.0,84,0.00,,,0.00,26,Wunderground v.1.15,2013-03-22 11:40:00,
2013-03-22 07:50:00,24.9,21.0,29.75,South,191,0.0,1.0,85,0.00,,,0.00,49,Wunderground v.1.15,2013-03-22 11:50:00,
2013-03-22 08:00:00,25.4,21.5,29.75,South,171,0.0,0.0,85,0.00,,,0.00,46,Wunderground v.1.15,2013-03-22 12:00:00,
2013-03-22 08:10:00,25.7,21.5,29.75,South,172,1.0,1.0,84,0.00,,,0.00,86,Wunderground v.1.15,2013-03-22 12:10:00,
2013-03-22 08:20:00,26.2,22.0,29.75,SSE,159,1.0,2.0,84,0.00,,,0.00,174,Wunderground v.1.15,2013-03-22 12:20:00,
2013-03-22 08:30:00,26.9,22.4,29.75,SSE,162,1.0,1.0,83,0.00,,,0.00,156,Wunderground v.1.15,2013-03-22 12:30:00,
2013-03-22 08:40:00,27.6,22.5,29.75,SSE,155,0.0,0.0,81,0.00,,,0.00,141,Wunderground v.1.15,2013-03-22 12:40:00,
2013-03-22 08:50:00,28.2,22.5,29.74,SSE,166,0.0,0.0,79,0.00,,,0.00,179,Wunderground v.1.15,2013-03-22 12:50:00,
2013-03-22 09:00:00,28.8,22.5,29.75,South,188,0.0,0.0,77,0.00,,,0.00,169,Wunderground v.1.15,2013-03-22 13:00:00,
2013-03-22 09:10:00,29.4,22.5,29.75,WSW,239,0.0,0.0,75,0.00,,,0.00,156,Wunderground v.1.15,2013-03-22 13:10:00,
2013-03-22 09:20:00,29.6,22.6,29.75,SSE,166,0.0,0.0,75,0.00,,,0.00,381,Wunderground v.1.15,2013-03-22 13:20:00,
2013-03-22 09:30:00,30.2,22.9,29.75,South,170,0.0,0.0,74,0.00,,,0.00,320,Wunderground v.1.15,2013-03-22 13:30:00,
2013-03-22 09:40:00,31.2,23.5,29.75,South,184,1.0,1.0,73,0.00,,,0.00,497,Wunderground v.1.15,2013-03-22 13:40:00,
2013-03-22 09:50:00,31.9,23.6,29.75,SSW,196,1.0,1.0,71,0.00,,,0.00,274,Wunderground v.1.15,2013-03-22 13:50:00,
2013-03-22 10:00:00,32.6,23.9,29.75,WNW,287,2.0,2.0,70,0.00,,,0.00,130,Wunderground v.1.15,2013-03-22 14:00:00,
2013-03-22 10:10:00,32.7,24.3,29.75,West,267,2.0,2.0,71,0.00,,,0.00,174,Wunderground v.1.15,2013-03-22 14:10:00,
2013-03-22 10:20:00,33.0,24.3,29.75,West,275,2.0,2.0,70,0.00,,,0.00,176,Wunderground v.1.15,2013-03-22 14:20:00,
2013-03-22 10:30:00,33.5,24.4,29.75,NNE,13,2.0,3.0,69,0.00,,,0.00,385,Wunderground v.1.15,2013-03-22 14:30:00,
2013-03-22 10:40:00,34.3,24.1,29.75,NNE,28,2.0,2.0,66,0.00,,,0.00,325,Wunderground v.1.15,2013-03-22 14:40:00,
2013-03-22 10:50:00,34.8,24.2,29.75,NNW,328,2.0,6.0,65,0.00,,,0.00,281,Wunderground v.1.15,2013-03-22 14:50:00,
2013-03-22 11:00:00,35.0,24.4,29.75,West,269,4.0,4.0,65,0.00,,,0.00,867,Wunderground v.1.15,2013-03-22 15:00:00,
2013-03-22 11:10:00,35.9,24.9,29.75,North,360,4.0,4.0,64,0.00,,,0.00,283,Wunderground v.1.15,2013-03-22 15:10:00,
2013-03-22 11:20:00,35.9,24.5,29.75,NNW,331,3.0,3.0,63,0.00,,,0.00,257,Wunderground v.1.15,2013-03-22 15:20:00,
2013-03-22 11:30:00,35.6,24.2,29.75,WNW,303,4.0,4.0,63,0.00,,,0.00,299,Wunderground v.1.15,2013-03-22 15:30:00,
2013-03-22 11:40:00,34.9,24.3,29.75,North,5,6.0,6.0,65,0.00,,,0.00,232,Wunderground v.1.15,2013-03-22 15:40:00,
2013-03-22 11:50:00,34.9,25.4,29.75,WSW,248,4.0,5.0,68,0.00,,,0.00,158,Wunderground v.1.15,2013-03-22 15:50:00,
2013-03-22 12:00:00,34.7,25.2,29.75,NW,319,2.0,2.0,68,0.00,,,0.00,207,Wunderground v.1.15,2013-03-22 16:00:00,
2013-03-22 12:10:00,35.0,25.5,29.75,West,278,3.0,3.0,68,0.00,,,0.00,276,Wunderground v.1.15,2013-03-22 16:10:00,
2013-03-22 12:20:00,35.3,25.8,29.75,NW,325,3.0,6.0,68,0.00,,,0.00,318,Wunderground v.1.15,2013-03-22 16:20:00,
2013-03-22 12:30:00,35.3,25.8,29.75,West,265,3.0,3.0,68,0.00,,,0.00,190,Wunderground v.1.15,2013-03-22 16:30:00,
2013-03-22 12:40:00,35.2,25.7,29.75,West,269,3.0,3.0,68,0.00,,,0.00,220,Wunderground v.1.15,2013-03-22 16:40:00,
2013-03-22 12:50:00,35.6,26.4,29.75,WNW,302,2.0,3.0,69,0.00,,,0.00,207,Wunderground v.1.15,2013-03-22 16:50:00,
2013-03-22 13:00:00,35.9,26.4,29.75,West,268,3.0,3.0,68,0.00,,,0.00,288,Wunderground v.1.15,2013-03-22 17:00:00,
2013-03-22 13:10:00,36.1,26.2,29.75,WSW,240,3.0,3.0,67,0.00,,,0.00,309,Wunderground v.1.15,2013-03-22 17:10:00,
2013-03-22 13:20:00,36.4,26.5,29.75,West,273,3.0,4.0,67,0.00,,,0.00,244,Wunderground v.1.15,2013-03-22 17:20:00,
2013-03-22 13:30:00,36.2,26.6,29.75,WNW,288,3.0,4.0,68,0.00,,,0.00,246,Wunderground v.1.15,2013-03-22 17:30:00,
2013-03-22 13:40:00,36.1,26.2,29.75,NW,310,4.0,4.0,67,0.00,,,0.00,294,Wunderground v.1.15,2013-03-22 17:40:00,
2013-03-22 13:50:00,36.3,26.4,29.75,West,263,4.0,4.0,67,0.00,,,0.00,367,Wunderground v.1.15,2013-03-22 17:50:00,
2013-03-22 14:01:00,36.7,25.7,29.74,NW,314,3.0,3.0,64,0.00,,,0.00,355,Wunderground v.1.15,2013-03-22 18:01:00,
2013-03-22 14:10:00,37.1,26.4,29.74,NW,304,3.0,5.0,65,0.00,,,0.00,396,Wunderground v.1.15,2013-03-22 18:10:00,
2013-03-22 14:20:00,37.3,26.2,29.74,West,265,4.0,4.0,64,0.00,,,0.00,283,Wunderground v.1.15,2013-03-22 18:20:00,
2013-03-22 14:30:00,37.3,27.0,29.74,SW,232,3.0,3.0,66,0.00,,,0.00,250,Wunderground v.1.15,2013-03-22 18:30:00,
2013-03-22 14:40:00,37.1,27.5,29.74,WSW,257,3.0,3.0,68,0.00,,,0.00,313,Wunderground v.1.15,2013-03-22 18:40:00,
2013-03-22 14:50:00,37.1,27.5,29.74,West,261,3.0,3.0,68,0.00,,,0.00,287,Wunderground v.1.15,2013-03-22 18:50:00,
2013-03-22 15:00:00,37.2,27.2,29.74,West,280,2.0,3.0,67,0.00,,,0.00,325,Wunderground v.1.15,2013-03-22 19:00:00,
2013-03-22 15:10:00,37.1,27.2,29.74,NNW,336,3.0,14.0,67,0.00,,,0.00,174,Wunderground v.1.15,2013-03-22 19:10:00,
2013-03-22 15:20:00,36.5,26.2,29.74,West,273,6.0,6.0,66,0.00,,,0.00,221,Wunderground v.1.15,2013-03-22 19:20:00,
2013-03-22 15:30:00,36.3,25.7,29.74,NW,322,4.0,4.0,65,0.00,,,0.00,218,Wunderground v.1.15,2013-03-22 19:30:00,
2013-03-22 15:40:00,36.3,25.3,29.74,West,263,5.0,9.0,64,0.00,,,0.00,214,Wunderground v.1.15,2013-03-22 19:40:00,
2013-03-22 15:50:00,36.2,23.6,29.75,WNW,298,6.0,6.0,60,0.00,,,0.00,176,Wunderground v.1.15,2013-03-22 19:50:00,
2013-03-22 16:00:00,36.1,23.5,29.75,NNW,329,5.0,5.0,60,0.00,,,0.00,149,Wunderground v.1.15,2013-03-22 20:00:00,
2013-03-22 16:10:00,36.1,23.9,29.75,NNE,17,5.0,12.0,61,0.00,,,0.00,193,Wunderground v.1.15,2013-03-22 20:10:00,
2013-03-22 16:20:00,36.1,23.9,29.76,WNW,285,6.0,6.0,61,0.00,,,0.00,200,Wunderground v.1.15,2013-03-22 20:20:00,
2013-03-22 16:30:00,36.0,24.2,29.76,WNW,301,6.0,7.0,62,0.00,,,0.00,167,Wunderground v.1.15,2013-03-22 20:30:00,
2013-03-22 16:40:00,35.7,23.6,29.76,NW,323,5.0,5.0,61,0.00,,,0.00,144,Wunderground v.1.15,2013-03-22 20:40:00,
2013-03-22 16:50:00,35.5,23.4,29.77,North,355,5.0,6.0,61,0.00,,,0.00,135,Wunderground v.1.15,2013-03-22 20:50:00,
2013-03-22 17:00:00,35.3,23.6,29.77,NW,323,5.0,5.0,62,0.00,,,0.00,97,Wunderground v.1.15,2013-03-22 21:00:00,
2013-03-22 17:10:00,35.0,24.0,29.77,NNW,346,4.0,4.0,64,0.00,,,0.00,91,Wunderground v.1.15,2013-03-22 21:10:00,
2013-03-22 17:20:00,34.4,23.5,29.78,WNW,298,6.0,7.0,64,0.00,,,0.00,53,Wunderground v.1.15,2013-03-22 21:20:00,
2013-03-22 17:30:00,33.6,22.7,29.78,NE,34,8.0,8.0,64,0.00,,,0.00,56,Wunderground v.1.15,2013-03-22 21:30:00,
2013-03-22 17:40:00,33.2,22.3,29.79,NNW,342,7.0,7.0,64,0.00,,,0.00,47,Wunderground v.1.15,2013-03-22 21:40:00,
2013-03-22 17:50:00,33.2,23.1,29.79,NW,317,5.0,5.0,66,0.00,,,0.00,70,Wunderground v.1.15,2013-03-22 21:50:00,
2013-03-22 18:00:00,33.1,23.0,29.80,North,351,8.0,8.0,66,0.00,,,0.00,49,Wunderground v.1.15,2013-03-22 22:00:00,
2013-03-22 18:10:00,33.0,22.9,29.80,NW,315,6.0,12.0,66,0.00,,,0.00,47,Wunderground v.1.15,2013-03-22 22:10:00,
2013-03-22 18:20:00,32.9,23.1,29.80,NW,320,5.0,5.0,67,0.00,,,0.00,37,Wunderground v.1.15,2013-03-22 22:20:00,
2013-03-22 18:30:00,32.7,22.9,29.81,West,281,6.0,6.0,67,0.00,,,0.00,25,Wunderground v.1.15,2013-03-22 22:30:00,
2013-03-22 18:40:00,32.4,23.0,29.81,NNW,337,5.0,11.0,68,0.00,,,0.00,19,Wunderground v.1.15,2013-03-22 22:40:00,
2013-03-22 18:50:00,32.2,22.8,29.82,NW,308,8.0,11.0,68,0.00,,,0.00,14,Wunderground v.1.15,2013-03-22 22:50:00,
2013-03-22 19:00:00,32.1,23.1,29.82,WSW,252,5.0,5.0,69,0.00,,,0.00,12,Wunderground v.1.15,2013-03-22 23:00:00,
2013-03-22 19:10:00,31.9,23.2,29.82,NNW,344,4.0,4.0,70,0.00,,,0.00,0,Wunderground v.1.15,2013-03-22 23:10:00,
2013-03-22 19:20:00,31.7,23.0,29.83,NW,313,5.0,5.0,70,0.00,,,0.00,0,Wunderground v.1.15,2013-03-22 23:20:00,
2013-03-22 19:30:00,31.5,23.2,29.83,WNW,286,4.0,4.0,71,0.00,,,0.00,0,Wunderground v.1.15,2013-03-22 23:30:00,
2013-03-22 19:40:00,31.5,23.5,29.83,WNW,282,3.0,3.0,72,0.00,,,0.00,0,Wunderground v.1.15,2013-03-22 23:40:00,
2013-03-22 19:50:00,31.5,23.5,29.83,NW,321,4.0,8.0,72,0.00,,,0.00,0,Wunderground v.1.15,2013-03-22 23:50:00,
2013-03-22 20:00:00,31.3,23.6,29.83,WNW,303,4.0,4.0,73,0.00,,,0.00,0,Wunderground v.1.15,2013-03-23 00:00:00,
2013-03-22 20:10:00,31.1,23.8,29.83,WNW,298,3.0,11.0,74,0.00,,,0.00,0,Wunderground v.1.15,2013-03-23 00:10:00,
2013-03-22 20:20:00,31.0,24.0,29.83,NW,311,3.0,4.0,75,0.00,,,0.00,0,Wunderground v.1.15,2013-03-23 00:20:00,
2013-03-22 20:30:00,31.0,24.3,29.83,WNW,293,3.0,3.0,76,0.00,,,0.00,0,Wunderground v.1.15,2013-03-23 00:30:00,
2013-03-22 20:40:00,31.0,24.3,29.84,West,267,3.0,4.0,76,0.00,,,0.00,0,Wunderground v.1.15,2013-03-23 00:40:00,
2013-03-22 20:50:00,30.9,24.5,29.84,WNW,300,5.0,5.0,77,0.00,,,0.00,0,Wunderground v.1.15,2013-03-23 00:50:00,
2013-03-22 21:00:00,30.6,24.2,29.84,SW,232,3.0,4.0,77,0.00,,,0.00,0,Wunderground v.1.15,2013-03-23 01:00:00,
2013-03-22 21:10:00,30.5,24.5,29.84,NW,306,4.0,9.0,78,0.00,,,0.00,0,Wunderground v.1.15,2013-03-23 01:10:00,
2013-03-22 21:20:00,30.4,24.7,29.85,NNE,23,3.0,4.0,79,0.00,,,0.00,0,Wunderground v.1.15,2013-03-23 01:20:00,
2013-03-22 21:30:00,30.3,24.9,29.85,NW,325,2.0,2.0,80,0.00,,,0.00,0,Wunderground v.1.15,2013-03-23 01:30:00,
2013-03-22 21:40:00,30.2,25.1,29.85,NNW,335,1.0,2.0,81,0.00,,,0.00,0,Wunderground v.1.15,2013-03-23 01:40:00,
2013-03-22 21:50:00,30.1,25.3,29.85,North,5,1.0,1.0,82,0.00,,,0.00,0,Wunderground v.1.15,2013-03-23 01:50:00,
2013-03-22 22:01:00,30.1,25.6,29.85,NNW,348,2.0,2.0,83,0.00,,,0.00,0,Wunderground v.1.15,2013-03-23 02:01:00,
2013-03-22 22:10:00,30.1,25.8,29.85,NW,319,1.0,2.0,84,0.00,,,0.00,0,Wunderground v.1.15,2013-03-23 02:10:00,
2013-03-22 22:20:00,30.2,25.9,29.85,NNW,333,2.0,2.0,84,0.00,,,0.00,0,Wunderground v.1.15,2013-03-23 02:20:00,
2013-03-22 22:30:00,30.2,25.9,29.85,West,279,2.0,3.0,84,0.00,,,0.00,0,Wunderground v.1.15,2013-03-23 02:30:00,
2013-03-22 22:40:00,30.1,26.1,29.85,NW,307,2.0,5.0,85,0.00,,,0.00,0,Wunderground v.1.15,2013-03-23 02:40:00,
2013-03-22 22:50:00,30.2,26.2,29.85,NNW,331,2.0,2.0,85,0.00,,,0.00,0,Wunderground v.1.15,2013-03-23 02:50:00,
2013-03-22 23:00:00,30.4,26.4,29.85,WNW,284,2.0,2.0,85,0.00,,,0.00,0,Wunderground v.1.15,2013-03-23 03:00:00,
2013-03-22 23:10:00,30.5,26.5,29.84,NW,304,2.0,2.0,85,0.00,,,0.00,0,Wunderground v.1.15,2013-03-23 03:10:00,
2013-03-22 23:20:00,30.7,26.4,29.85,WNW,302,3.0,5.0,84,0.00,,,0.00,0,Wunderground v.1.15,2013-03-23 03:20:00,
2013-03-22 23:30:00,30.8,26.5,29.84,NW,311,2.0,4.0,84,0.00,,,0.00,0,Wunderground v.1.15,2013-03-23 03:30:00,
2013-03-22 23:40:00,30.7,26.4,29.84,WNW,284,2.0,2.0,84,0.00,,,0.00,0,Wunderground v.1.15,2013-03-23 03:40:00,
2013-03-22 23:50:00,30.9,26.6,29.84,NW,311,1.0,2.0,84,0.00,,,0.00,0,Wunderground v.1.15,2013-03-23 03:50:00,